createdAt,value
2022-08-14T00:01:24.062Z,101077.91
2022-08-14T00:03:50.981Z,101071.84
2022-08-14T00:06:28.475Z,101065.91
2022-08-14T00:08:59.313Z,101065.06
2022-08-14T00:11:28.800Z,101075.84
2022-08-14T00:13:58.466Z,101071.22
2022-08-14T00:16:40.816Z,101068.72
2022-08-14T00:19:18.660Z,101063.25
2022-08-14T00:21:46.978Z,101060.63
2022-08-14T00:24:13.667Z,101063.84
2022-08-14T00:26:50.002Z,101064.91
2022-08-14T00:29:21.302Z,101067.75
2022-08-14T00:31:54.535Z,101056.25
2022-08-14T00:34:36.777Z,101064.19
2022-08-14T00:37:08.998Z,101061.06
2022-08-14T00:39:35.489Z,101056.91
2022-08-14T00:42:03.409Z,101053.81
2022-08-14T00:44:32.937Z,101043.25
2022-08-14T00:47:02.545Z,101058.66
2022-08-14T00:49:30.052Z,101047.97
2022-08-14T00:51:57.002Z,101046.66
2022-08-14T00:54:25.064Z,101048.34
2022-08-14T00:56:55.662Z,101048.69
2022-08-14T00:59:24.955Z,101039.91
2022-08-14T01:01:53.882Z,101053.25
2022-08-14T01:04:37.963Z,101039.91
2022-08-14T01:07:10.042Z,101042.75
2022-08-14T01:09:37.589Z,101037.66
2022-08-14T01:12:06.400Z,101040.97
2022-08-14T01:14:34.739Z,101043.47
2022-08-14T01:20:01.930Z,101046.53
2022-08-14T01:22:31.518Z,101046.03
2022-08-14T01:24:58.109Z,101043.19
2022-08-14T01:27:25.233Z,101038.75
2022-08-14T01:30:03.332Z,101046.25
2022-08-14T01:32:37.402Z,101042.66
2022-08-14T01:35:18.334Z,101044.06
2022-08-14T01:37:56.158Z,101038.56
2022-08-14T01:40:25.593Z,101040.19
2022-08-14T01:42:59.878Z,101036.75
2022-08-14T01:45:26.411Z,101037.75
2022-08-14T01:48:03.463Z,101027.69
2022-08-14T01:50:30.615Z,101032.66
2022-08-14T01:53:01.220Z,101033.88
2022-08-14T01:55:31.219Z,101031.69
2022-08-14T01:58:18.212Z,101035.25
2022-08-14T02:00:45.005Z,101032.06
2022-08-14T02:03:16.161Z,101040.09
2022-08-14T02:05:43.257Z,101031.94
2022-08-14T02:08:10.694Z,101030.13
2022-08-14T02:10:46.936Z,101034.84
2022-08-14T02:13:17.412Z,101026.88
2022-08-14T02:15:44.981Z,101030.41
2022-08-14T02:18:15.291Z,101034.09
2022-08-14T02:20:42.193Z,101035.00
2022-08-14T02:23:09.145Z,101034.84
2022-08-14T02:25:36.313Z,101042.41
2022-08-14T02:28:25.584Z,101034.56
2022-08-14T02:30:52.453Z,101033.41
2022-08-14T02:33:19.342Z,101028.69
2022-08-14T02:35:53.042Z,101034.03
2022-08-14T02:38:30.338Z,101031.03
2022-08-14T02:41:01.139Z,101026.03
2022-08-14T02:43:36.412Z,101022.38
2022-08-14T02:46:05.867Z,101014.34
2022-08-14T02:49:01.830Z,101017.09
2022-08-14T02:51:21.254Z,101017.59
2022-08-14T02:53:49.343Z,101015.69
2022-08-14T02:56:30.962Z,101010.38
2022-08-14T02:59:08.217Z,101008.84
2022-08-14T03:01:43.401Z,101004.94
2022-08-14T03:04:20.558Z,101008.16
2022-08-14T03:06:57.357Z,101012.84
2022-08-14T03:09:42.380Z,101003.84
2022-08-14T03:12:31.741Z,100999.34
2022-08-14T03:15:02.678Z,100992.13
2022-08-14T03:17:31.586Z,100997.47
2022-08-14T03:20:07.726Z,100999.13
2022-08-14T03:22:38.155Z,101004.19
2022-08-14T03:25:08.523Z,101003.56
2022-08-14T03:27:48.475Z,101002.59
2022-08-14T03:30:23.678Z,100998.50
2022-08-14T03:32:50.148Z,101008.16
2022-08-14T03:35:18.199Z,101001.28
2022-08-14T03:39:12.796Z,100991.41
2022-08-14T03:40:31.050Z,100990.88
2022-08-14T03:42:57.488Z,100990.19
2022-08-14T03:45:34.464Z,100987.44
2022-08-14T03:48:30.245Z,100983.91
2022-08-14T03:50:57.913Z,100984.00
2022-08-14T03:53:26.264Z,100976.38
2022-08-14T03:55:56.065Z,100984.28
2022-08-14T03:58:35.163Z,100977.00
2022-08-14T04:01:04.717Z,100973.81
2022-08-14T04:03:33.175Z,100968.75
2022-08-14T04:06:04.784Z,100976.59
2022-08-14T04:08:36.066Z,100978.41
2022-08-14T04:11:02.790Z,100981.72
2022-08-14T04:13:35.386Z,100980.03
2022-08-14T04:16:06.898Z,100989.28
2022-08-14T04:18:43.828Z,100980.75
2022-08-14T04:21:12.387Z,100982.41
2022-08-14T04:23:39.881Z,100988.94
2022-08-14T04:26:14.215Z,100983.50
2022-08-14T04:29:06.741Z,100990.00
2022-08-14T04:32:58.211Z,100989.88
2022-08-14T04:34:20.635Z,100984.78
2022-08-14T04:37:08.867Z,100990.09
2022-08-14T04:39:57.356Z,100986.56
2022-08-14T04:42:47.241Z,100983.19
2022-08-14T04:45:18.667Z,100979.63
2022-08-14T04:48:03.714Z,100985.47
2022-08-14T04:50:37.985Z,100990.59
2022-08-14T04:53:12.919Z,100979.34
2022-08-14T04:55:41.166Z,100977.69
2022-08-14T04:58:09.526Z,100970.81
2022-08-14T05:00:50.842Z,100968.66
2022-08-14T05:03:20.950Z,100976.28
2022-08-14T05:05:54.532Z,100966.09
2022-08-14T05:08:31.691Z,100969.28
2022-08-14T05:11:11.888Z,100960.75
2022-08-14T05:14:08.265Z,100961.84
2022-08-14T05:16:29.330Z,100960.66
2022-08-14T05:19:24.664Z,100959.72
2022-08-14T05:21:59.303Z,100957.16
2022-08-14T05:24:29.321Z,100959.63
2022-08-14T05:26:56.866Z,100955.53
2022-08-14T05:29:26.306Z,100957.97
2022-08-14T05:31:57.394Z,100955.94
2022-08-14T05:34:31.716Z,100954.78
2022-08-14T05:37:02.427Z,100955.25
2022-08-14T05:39:29.932Z,100954.75
2022-08-14T05:41:57.458Z,100960.72
2022-08-14T05:44:27.890Z,100946.34
2022-08-14T05:46:56.772Z,100947.28
2022-08-14T05:49:23.292Z,100947.31
2022-08-14T05:51:59.644Z,100951.22
2022-08-14T05:54:28.734Z,100942.63
2022-08-14T05:57:05.428Z,100955.53
2022-08-14T05:59:39.119Z,100949.47
2022-08-14T06:02:11.033Z,100946.38
2022-08-14T06:04:39.022Z,100949.88
2022-08-14T06:07:06.184Z,100946.28
2022-08-14T06:09:35.919Z,100941.94
2022-08-14T06:12:10.661Z,100944.25
2022-08-14T06:14:39.225Z,100946.00
2022-08-14T06:17:06.717Z,100930.75
2022-08-14T06:19:33.295Z,100932.50
2022-08-14T06:21:59.858Z,100920.03
2022-08-14T06:24:27.132Z,100920.16
2022-08-14T06:26:56.680Z,100923.13
2022-08-14T06:29:32.457Z,100910.47
2022-08-14T06:32:37.716Z,100914.03
2022-08-14T06:35:02.915Z,100906.44
2022-08-14T06:37:57.199Z,100900.06
2022-08-14T06:40:29.667Z,100902.03
2022-08-14T06:43:03.297Z,100906.91
2022-08-14T06:45:35.081Z,100902.53
2022-08-14T06:48:06.077Z,100903.81
2022-08-14T06:50:39.038Z,100906.56
2022-08-14T06:53:05.598Z,100906.09
2022-08-14T06:55:32.231Z,100905.25
2022-08-14T06:57:58.969Z,100905.91
2022-08-14T07:00:30.590Z,100910.25
2022-08-14T07:03:17.156Z,100913.00
2022-08-14T07:05:58.052Z,100907.47
2022-08-14T07:08:31.378Z,100900.44
2022-08-14T07:11:03.858Z,100901.94
2022-08-14T07:13:31.096Z,100903.28
2022-08-14T07:15:58.890Z,100905.06
2022-08-14T07:18:28.776Z,100910.84
2022-08-14T07:20:56.404Z,100908.50
2022-08-14T07:23:24.131Z,100905.75
2022-08-14T07:25:58.256Z,100895.91
2022-08-14T07:28:31.956Z,100891.41
2022-08-14T07:31:05.172Z,100885.84
2022-08-14T07:33:50.759Z,100888.16
2022-08-14T07:36:30.112Z,100879.69
2022-08-14T07:39:12.495Z,100884.00
2022-08-14T07:41:42.475Z,100877.50
2022-08-14T07:44:29.635Z,100878.28
2022-08-14T07:46:57.751Z,100875.53
2022-08-14T07:49:24.605Z,100877.31
2022-08-14T07:51:51.155Z,100872.84
2022-08-14T07:54:23.241Z,100865.09
2022-08-14T07:57:00.157Z,100867.66
2022-08-14T07:59:41.937Z,100862.31
2022-08-14T08:02:19.498Z,100868.88
2022-08-14T08:04:52.982Z,100864.78
2022-08-14T08:07:22.148Z,100857.75
2022-08-14T08:09:53.436Z,100856.94
2022-08-14T08:12:24.947Z,100854.91
2022-08-14T08:15:07.058Z,100849.97
2022-08-14T08:17:42.361Z,100856.53
2022-08-14T08:20:15.823Z,100857.78
2022-08-14T08:22:56.006Z,100853.25
2022-08-14T08:25:27.652Z,100855.75
2022-08-14T08:27:58.404Z,100854.47
2022-08-14T08:30:24.998Z,100853.59
2022-08-14T08:32:53.540Z,100849.84
2022-08-14T08:35:23.442Z,100857.72
2022-08-14T08:37:53.708Z,100857.69
2022-08-14T08:40:42.216Z,100839.94
2022-08-14T08:43:29.773Z,100841.56
2022-08-14T08:46:18.648Z,100833.75
2022-08-14T08:51:30.935Z,100835.88
2022-08-14T08:54:01.309Z,100830.94
2022-08-14T08:56:41.350Z,100839.16
2022-08-14T08:59:34.282Z,100827.56
2022-08-14T09:02:10.151Z,100829.66
2022-08-14T09:04:45.561Z,100818.09
2022-08-14T09:07:20.204Z,100816.03
2022-08-14T09:09:54.059Z,100810.66
2022-08-14T09:12:26.794Z,100815.94
2022-08-14T09:14:54.626Z,100811.31
2022-08-14T09:17:25.660Z,100812.56
2022-08-14T09:19:53.581Z,100810.78
2022-08-14T09:22:35.825Z,100804.59
2022-08-14T09:25:08.259Z,100806.22
2022-08-14T09:27:37.967Z,100802.56
2022-08-14T09:30:31.074Z,100809.94
2022-08-14T09:33:06.089Z,100806.72
2022-08-14T09:35:44.199Z,100809.56
2022-08-14T09:38:28.278Z,100792.59
2022-08-14T09:41:23.273Z,100791.59
2022-08-14T09:44:06.300Z,100785.38
2022-08-14T09:46:34.466Z,100788.69
2022-08-14T09:49:06.067Z,100787.09
2022-08-14T09:51:45.197Z,100784.31
2022-08-14T09:54:23.369Z,100781.28
2022-08-14T09:56:56.683Z,100774.53
2022-08-14T09:59:27.994Z,100769.09
2022-08-14T10:01:57.063Z,100770.41
2022-08-14T10:04:35.984Z,100775.06
2022-08-14T10:07:05.529Z,100770.97
2022-08-14T10:09:34.596Z,100768.03
2022-08-14T10:12:04.212Z,100766.88
2022-08-14T10:14:36.576Z,100754.84
2022-08-14T10:17:06.962Z,100750.22
2022-08-14T10:19:36.567Z,100749.91
2022-08-14T10:23:12.554Z,100733.66
2022-08-14T10:24:57.550Z,100729.56
2022-08-14T10:27:27.085Z,100726.81
2022-08-14T10:30:00.887Z,100716.75
2022-08-14T10:32:36.524Z,100712.13
2022-08-14T10:35:16.474Z,100702.31
2022-08-14T10:37:49.462Z,100703.38
2022-08-14T10:40:38.855Z,100707.44
2022-08-14T10:43:27.624Z,100695.28
2022-08-14T10:46:58.902Z,100691.72
2022-08-14T10:48:57.913Z,100683.72
2022-08-14T10:51:26.266Z,100680.47
2022-08-14T10:53:57.335Z,100675.31
2022-08-14T10:56:35.126Z,100668.44
2022-08-14T10:59:08.141Z,100682.97
2022-08-14T11:01:38.388Z,100677.25
2022-08-14T11:04:20.152Z,100677.44
2022-08-14T11:06:53.423Z,100680.06
2022-08-14T11:09:20.045Z,100667.88
2022-08-14T11:11:55.573Z,100661.53
2022-08-14T11:14:23.064Z,100664.41
2022-08-14T11:16:53.903Z,100662.16
2022-08-14T11:19:25.019Z,100654.88
2022-08-14T11:21:56.074Z,100660.56
2022-08-14T11:24:55.008Z,100654.00
2022-08-14T11:27:19.502Z,100653.84
2022-08-14T11:29:48.222Z,100651.94
2022-08-14T11:32:21.887Z,100656.81
2022-08-14T11:34:48.798Z,100655.00
2022-08-14T11:37:23.593Z,100650.72
2022-08-14T11:39:55.906Z,100647.44
2022-08-14T11:42:58.231Z,100645.13
2022-08-14T11:45:17.146Z,100631.19
2022-08-14T11:48:10.661Z,100636.78
2022-08-14T11:50:37.328Z,100635.06
2022-08-14T11:53:07.096Z,100629.72
2022-08-14T11:55:38.117Z,100627.41
2022-08-14T11:58:09.424Z,100624.22
2022-08-14T12:00:48.379Z,100622.75
2022-08-14T12:03:17.804Z,100619.31
2022-08-14T12:05:49.140Z,100615.53
2022-08-14T12:08:16.150Z,100610.75
2022-08-14T12:10:57.508Z,100615.38
2022-08-14T12:13:30.913Z,100605.13
2022-08-14T12:16:01.102Z,100604.16
2022-08-14T12:18:39.432Z,100595.75
2022-08-14T12:21:21.466Z,100598.25
2022-08-14T12:24:01.870Z,100596.38
2022-08-14T12:26:39.883Z,100585.66
2022-08-14T12:29:10.245Z,100584.63
2022-08-14T12:31:46.726Z,100584.00
2022-08-14T12:34:20.351Z,100573.25
2022-08-14T12:36:49.894Z,100578.41
2022-08-14T12:39:23.873Z,100576.00
2022-08-14T12:41:57.002Z,100568.72
2022-08-14T12:44:39.107Z,100574.28
2022-08-14T12:47:15.270Z,100570.72
2022-08-14T12:49:53.377Z,100570.91
2022-08-14T12:52:41.697Z,100564.22
2022-08-14T12:55:20.944Z,100560.84
2022-08-14T12:57:53.348Z,100552.94
2022-08-14T13:00:23.974Z,100549.19
2022-08-14T13:02:55.417Z,100551.44
2022-08-14T13:05:31.169Z,100541.34
2022-08-14T13:07:59.486Z,100544.81
2022-08-14T13:10:51.516Z,100541.78
2022-08-14T13:13:17.310Z,100531.97
2022-08-14T13:15:45.805Z,100530.34
2022-08-14T13:18:14.544Z,100529.69
2022-08-14T13:20:51.847Z,100518.59
2022-08-14T13:23:32.168Z,100513.47
2022-08-14T13:25:59.547Z,100509.50
2022-08-14T13:28:32.996Z,100498.75
2022-08-14T13:31:10.935Z,100490.38
2022-08-14T13:33:38.062Z,100487.81
2022-08-14T13:36:08.811Z,100481.50
2022-08-14T13:38:35.315Z,100475.09
2022-08-14T13:41:02.778Z,100477.41
2022-08-14T13:43:31.658Z,100471.56
2022-08-14T13:46:03.861Z,100469.00
2022-08-14T13:48:33.071Z,100465.97
2022-08-14T13:51:05.841Z,100456.09
2022-08-14T13:53:52.602Z,100453.56
2022-08-14T13:56:36.340Z,100450.84
2022-08-14T13:59:04.601Z,100442.09
2022-08-14T14:01:42.860Z,100438.97
2022-08-14T14:04:19.279Z,100439.59
2022-08-14T14:06:48.820Z,100435.84
2022-08-14T14:09:20.749Z,100432.16
2022-08-14T14:11:47.800Z,100427.50
2022-08-14T14:14:44.832Z,100425.75
2022-08-14T14:17:12.431Z,100417.28
2022-08-14T14:19:41.335Z,100411.75
2022-08-14T14:22:09.766Z,100397.03
2022-08-14T14:24:36.729Z,100405.31
2022-08-14T14:27:30.065Z,100405.47
2022-08-14T14:29:55.721Z,100404.41
2022-08-14T14:32:32.194Z,100408.22
2022-08-14T14:35:02.706Z,100403.47
2022-08-14T14:37:30.567Z,100404.75
2022-08-14T14:40:54.291Z,100387.22
2022-08-14T14:42:48.873Z,100382.84
2022-08-14T14:45:22.185Z,100387.75
2022-08-14T14:47:59.409Z,100387.09
2022-08-14T14:50:26.501Z,100379.66
2022-08-14T14:52:54.008Z,100377.63
2022-08-14T14:55:59.562Z,100380.47
2022-08-14T14:58:30.650Z,100383.09
2022-08-14T15:01:03.516Z,100370.69
2022-08-14T15:03:36.743Z,100372.09
2022-08-14T15:06:03.945Z,100374.88
2022-08-14T15:08:56.487Z,100370.78
2022-08-14T15:11:19.847Z,100370.47
2022-08-14T15:13:53.350Z,100369.72
2022-08-14T15:16:20.461Z,100387.53
2022-08-14T15:18:49.198Z,100375.13
2022-08-14T15:21:15.956Z,100369.56
2022-08-14T15:23:44.843Z,100372.47
2022-08-14T15:26:30.870Z,100372.09
2022-08-14T15:29:05.823Z,100368.53
2022-08-14T15:31:36.270Z,100360.22
2022-08-14T15:34:44.468Z,100362.47
2022-08-14T15:37:02.000Z,100355.19
2022-08-14T15:39:35.899Z,100352.28
2022-08-14T15:42:15.643Z,100356.44
2022-08-14T15:44:56.595Z,100339.31
2022-08-14T15:47:28.412Z,100352.66
2022-08-14T15:50:00.669Z,100339.00
2022-08-14T15:52:32.688Z,100347.88
2022-08-14T15:55:09.548Z,100335.97
2022-08-14T15:57:36.971Z,100333.59
2022-08-14T16:00:43.355Z,100333.59
2022-08-14T16:03:15.621Z,100331.00
2022-08-14T16:05:43.382Z,100332.94
2022-08-14T16:08:27.023Z,100322.25
2022-08-14T16:10:56.434Z,100317.78
2022-08-14T16:13:41.431Z,100314.97
2022-08-14T16:16:47.094Z,100322.94
2022-08-14T16:19:15.889Z,100323.47
2022-08-14T16:22:02.752Z,100317.41
2022-08-14T16:24:33.236Z,100305.81
2022-08-14T16:27:01.470Z,100303.09
2022-08-14T16:29:31.038Z,100287.72
2022-08-14T16:32:01.741Z,100289.13
2022-08-14T16:34:50.104Z,100283.91
2022-08-14T16:37:21.125Z,100285.94
2022-08-14T16:39:49.432Z,100285.44
2022-08-14T16:42:39.139Z,100283.81
2022-08-14T16:45:11.490Z,100286.81
2022-08-14T16:47:38.207Z,100277.41
2022-08-14T16:50:10.472Z,100283.88
2022-08-14T16:52:44.172Z,100278.97
2022-08-14T16:55:13.962Z,100279.47
2022-08-14T16:57:49.997Z,100274.50
2022-08-14T17:00:28.508Z,100277.63
2022-08-14T17:03:04.702Z,100281.13
2022-08-14T17:05:41.598Z,100278.28
2022-08-14T17:08:31.566Z,100281.25
2022-08-14T17:10:57.221Z,100272.69
2022-08-14T17:13:27.441Z,100269.88
2022-08-14T17:16:25.439Z,100259.50
2022-08-14T17:19:00.846Z,100259.38
2022-08-14T17:21:38.214Z,100256.78
2022-08-14T17:24:58.317Z,100257.13
2022-08-14T17:27:04.474Z,100256.13
2022-08-14T17:29:34.820Z,100256.06
2022-08-14T17:32:22.480Z,100249.22
2022-08-14T17:34:57.837Z,100246.00
2022-08-14T17:37:34.319Z,100243.94
2022-08-14T17:40:15.113Z,100243.13
2022-08-14T17:42:45.684Z,100247.34
2022-08-14T17:45:26.782Z,100247.41
2022-08-14T17:47:56.958Z,100247.53
2022-08-14T17:50:58.745Z,100247.22
2022-08-14T17:53:25.722Z,100246.25
2022-08-14T17:56:02.897Z,100249.59
2022-08-14T17:58:38.725Z,100255.63
2022-08-14T18:01:13.294Z,100247.19
2022-08-14T18:03:50.180Z,100251.56
2022-08-14T18:06:39.399Z,100256.22
2022-08-14T18:09:24.639Z,100265.41
2022-08-14T18:11:55.149Z,100262.34
2022-08-14T18:14:32.251Z,100263.31
2022-08-14T18:17:01.034Z,100263.47
2022-08-14T18:19:30.021Z,100266.06
2022-08-14T18:21:58.989Z,100269.44
2022-08-14T18:24:30.322Z,100272.09
2022-08-14T18:27:08.976Z,100270.63
2022-08-14T18:29:42.702Z,100276.16
2022-08-14T18:32:27.639Z,100276.25
2022-08-14T18:35:11.039Z,100278.00
2022-08-14T18:37:41.187Z,100276.88
2022-08-14T18:40:17.637Z,100276.19
2022-08-14T18:42:59.232Z,100270.47
2022-08-14T18:45:32.996Z,100276.75
2022-08-14T18:48:18.614Z,100271.50
2022-08-14T18:51:02.269Z,100274.81
2022-08-14T18:53:34.398Z,100279.78
2022-08-14T18:56:09.636Z,100276.97
2022-08-14T18:58:48.448Z,100293.88
2022-08-14T19:01:26.520Z,100308.72
2022-08-14T19:03:57.458Z,100303.78
2022-08-14T19:06:42.821Z,100304.59
2022-08-14T19:09:50.586Z,100313.19
2022-08-14T19:12:56.536Z,100317.28
2022-08-14T19:15:27.294Z,100320.16
2022-08-14T19:18:13.881Z,100316.84
2022-08-14T19:21:13.338Z,100326.31
2022-08-14T19:23:42.688Z,100316.50
2022-08-14T19:26:36.254Z,100314.84
2022-08-14T19:29:37.724Z,100304.19
2022-08-14T19:32:38.933Z,100301.31
2022-08-14T19:35:49.645Z,100305.44
2022-08-14T19:38:47.837Z,100305.44
2022-08-14T19:41:21.037Z,100305.47
2022-08-14T19:43:55.729Z,100301.03
2022-08-14T19:46:39.114Z,100303.88
2022-08-14T19:49:23.035Z,100308.84
2022-08-14T19:51:50.121Z,100307.19
2022-08-14T19:54:17.115Z,100308.00
2022-08-14T19:56:45.709Z,100303.47
2022-08-14T19:59:19.134Z,100304.72
2022-08-14T20:01:51.132Z,100298.97
2022-08-14T20:04:46.179Z,100308.84
2022-08-14T20:07:27.394Z,100302.69
2022-08-14T20:11:04.857Z,100299.81
2022-08-14T20:13:14.005Z,100296.53
2022-08-14T20:15:47.673Z,100294.88
2022-08-14T20:18:45.873Z,100293.66
2022-08-14T20:21:05.147Z,100287.47
2022-08-14T20:23:38.463Z,100284.19
2022-08-14T20:26:31.521Z,100279.28
2022-08-14T20:29:04.639Z,100280.91
2022-08-14T20:31:37.633Z,100284.63
2022-08-14T20:34:18.957Z,100280.94
2022-08-14T20:37:09.808Z,100280.09
2022-08-14T20:39:54.407Z,100289.09
2022-08-14T20:42:43.805Z,100289.91
2022-08-14T20:45:21.480Z,100294.00
2022-08-14T20:47:56.449Z,100283.75
2022-08-14T20:50:28.749Z,100288.31
2022-08-14T20:52:57.334Z,100289.13
2022-08-14T20:55:27.585Z,100289.13
2022-08-14T20:57:58.977Z,100289.91
2022-08-14T21:00:51.672Z,100297.69
2022-08-14T21:03:56.824Z,100298.09
2022-08-14T21:07:22.899Z,100288.25
2022-08-14T21:10:04.552Z,100292.78
2022-08-14T21:12:33.688Z,100284.97
2022-08-14T21:14:59.623Z,100281.66
2022-08-14T21:17:27.124Z,100276.28
2022-08-14T21:19:53.837Z,100277.50
2022-08-14T21:22:20.271Z,100276.97
2022-08-14T21:24:47.480Z,100267.94
2022-08-14T21:27:21.986Z,100264.66
2022-08-14T21:29:56.052Z,100263.84
2022-08-14T21:32:35.045Z,100269.59
2022-08-14T21:35:09.064Z,100266.72
2022-08-14T21:37:43.657Z,100274.50
2022-08-14T21:40:39.853Z,100275.69
2022-08-14T21:43:00.950Z,100267.06
2022-08-14T21:45:27.692Z,100270.31
2022-08-14T21:47:56.339Z,100271.94
2022-08-14T21:51:00.024Z,100267.41
2022-08-14T21:53:10.527Z,100268.19
2022-08-14T21:55:37.354Z,100265.59
2022-08-14T21:58:53.150Z,100272.13
2022-08-14T22:00:51.523Z,100258.94
2022-08-14T22:03:23.425Z,100257.28
2022-08-14T22:05:55.886Z,100256.38
2022-08-14T22:08:26.547Z,100263.63
2022-08-14T22:10:54.958Z,100259.06
2022-08-14T22:13:24.618Z,100254.94
2022-08-14T22:15:54.344Z,100255.81
2022-08-14T22:18:25.467Z,100263.53
2022-08-14T22:20:53.893Z,100266.41
2022-08-14T22:23:23.810Z,100266.25
2022-08-14T22:25:51.182Z,100259.75
2022-08-14T22:28:25.168Z,100268.38
2022-08-14T22:30:54.906Z,100263.00
2022-08-14T22:33:26.600Z,100262.13
2022-08-14T22:35:57.746Z,100254.69
2022-08-14T22:38:36.417Z,100256.66
2022-08-14T22:41:25.839Z,100249.22
2022-08-14T22:43:53.675Z,100242.53
2022-08-14T22:46:21.200Z,100242.44
2022-08-14T22:48:49.174Z,100238.75
2022-08-14T22:51:17.992Z,100238.28
2022-08-14T22:53:48.455Z,100235.69
2022-08-14T22:56:20.133Z,100231.44
2022-08-14T22:58:53.857Z,100231.31
2022-08-14T23:01:57.105Z,100237.72
2022-08-14T23:04:35.308Z,100239.69
2022-08-14T23:07:21.967Z,100232.28
2022-08-14T23:09:57.614Z,100231.47
2022-08-14T23:12:47.415Z,100237.75
2022-08-14T23:15:23.592Z,100230.88
2022-08-14T23:17:51.063Z,100233.72
2022-08-14T23:20:21.266Z,100239.09
2022-08-14T23:22:52.380Z,100235.72
2022-08-14T23:25:56.903Z,100239.69
2022-08-14T23:28:34.417Z,100229.06
2022-08-14T23:30:55.347Z,100240.31
2022-08-14T23:33:21.895Z,100241.09
2022-08-14T23:35:58.846Z,100235.25
2022-08-14T23:38:31.059Z,100232.50
2022-08-14T23:40:58.804Z,100237.03
2022-08-14T23:43:28.270Z,100240.09
2022-08-14T23:45:57.854Z,100233.16
2022-08-14T23:48:27.983Z,100237.56
2022-08-14T23:50:55.155Z,100233.34
2022-08-14T23:53:47.428Z,100240.44
2022-08-14T23:56:30.412Z,100233.50
2022-08-14T23:59:00.970Z,100233.50
